Time;durP1;ratioP1;P1;durP2;ratioP2;P2;SDS_P1;SDS_P2;PMS_P1;PMS_P2;Temp;Humidity;BMP_temperature;BMP_pressure;BME280_temperature;BME280_humidity;BME280_pressure;Samples;Min_cycle;Max_cycle;Signal;HPM_P1;HPM_P2
2023/01/08 00:00:48;;;;;;;4.55;2.80;;;11.30;90.40;;;;;;5022302;28;20559;-66
2023/01/08 00:03:14;;;;;;;4.20;2.63;;;11.30;90.30;;;;;;5027096;28;20039;-64
2023/01/08 00:05:40;;;;;;;2.92;2.40;;;11.30;90.30;;;;;;5027965;28;20161;-64
2023/01/08 00:08:07;;;;;;;2.80;2.30;;;11.30;90.20;;;;;;5028780;28;20022;-64
2023/01/08 00:10:34;;;;;;;2.90;2.55;;;11.30;90.20;;;;;;5029499;28;20388;-65
2023/01/08 00:12:59;;;;;;;3.10;2.72;;;11.30;90.10;;;;;;5027066;28;20021;-65
2023/01/08 00:15:25;;;;;;;4.80;2.90;;;11.30;90.00;;;;;;5029385;28;20025;-65
2023/01/08 00:17:50;;;;;;;3.50;2.53;;;11.30;90.00;;;;;;5030504;28;20031;-64
2023/01/08 00:20:16;;;;;;;4.00;2.78;;;11.30;90.00;;;;;;5026450;28;20419;-64
2023/01/08 00:22:42;;;;;;;4.15;2.97;;;11.30;90.00;;;;;;5024163;28;20396;-66
2023/01/08 00:25:07;;;;;;;4.28;3.00;;;11.30;90.00;;;;;;5025511;28;20484;-64
2023/01/08 00:27:33;;;;;;;4.47;3.13;;;11.30;90.00;;;;;;5020616;28;20025;-66
2023/01/08 00:29:58;;;;;;;4.32;3.20;;;11.30;90.00;;;;;;5009637;28;20110;-66
2023/01/08 00:32:24;;;;;;;3.78;3.08;;;11.30;89.90;;;;;;5010477;28;20113;-65
2023/01/08 00:34:50;;;;;;;4.32;3.10;;;11.30;89.80;;;;;;5009643;28;20022;-63
2023/01/08 00:37:19;;;;;;;4.22;3.20;;;11.30;89.80;;;;;;5009421;28;20377;-65
2023/01/08 00:39:44;;;;;;;2.90;2.58;;;11.30;89.70;;;;;;5014709;28;20033;-65
2023/01/08 00:42:11;;;;;;;4.10;2.97;;;11.40;89.70;;;;;;5025975;28;20407;-65
2023/01/08 00:44:36;;;;;;;3.67;2.95;;;11.40;89.50;;;;;;5028581;28;20403;-64
2023/01/08 00:47:02;;;;;;;4.57;2.42;;;11.40;89.40;;;;;;5024911;28;20033;-65
2023/01/08 00:49:28;;;;;;;3.03;2.55;;;11.40;89.40;;;;;;5027387;28;20102;-63
2023/01/08 00:51:53;;;;;;;4.07;3.13;;;11.40;89.20;;;;;;5028931;28;20696;-65
2023/01/08 00:54:19;;;;;;;4.85;2.60;;;11.40;89.10;;;;;;5028339;28;20575;-66
2023/01/08 00:56:44;;;;;;;4.07;3.13;;;11.40;89.10;;;;;;5029138;28;20029;-67
2023/01/08 00:59:10;;;;;;;4.47;2.90;;;11.40;89.00;;;;;;5022582;28;20546;-66
2023/01/08 01:01:35;;;;;;;3.78;2.80;;;11.40;88.90;;;;;;5029427;28;20023;-65
2023/01/08 01:04:01;;;;;;;5.25;3.00;;;11.40;88.80;;;;;;5022880;28;20406;-67
2023/01/08 01:06:27;;;;;;;3.67;2.50;;;11.40;88.70;;;;;;5023194;28;20443;-67
2023/01/08 01:08:53;;;;;;;3.58;2.60;;;11.40;88.70;;;;;;5029362;28;20029;-65
2023/01/08 01:11:21;;;;;;;5.28;2.80;;;11.40;88.60;;;;;;5025851;28;20562;-65
2023/01/08 01:13:47;;;;;;;4.53;2.63;;;11.40;88.50;;;;;;5023943;28;20026;-65
2023/01/08 01:16:13;;;;;;;5.30;3.20;;;11.50;88.50;;;;;;5027202;28;20030;-65
2023/01/08 01:18:39;;;;;;;7.28;3.90;;;11.40;88.40;;;;;;5030731;28;20091;-64
2023/01/08 01:21:16;;;;;;;4.90;3.08;;;11.40;88.60;;;;;;5032940;28;20080;-66
2023/01/08 01:23:42;;;;;;;4.60;2.88;;;11.40;88.80;;;;;;5026250;28;20116;-66
2023/01/08 01:26:16;;;;;;;5.15;2.88;;;11.40;88.90;;;;;;5022685;28;20428;-65
2023/01/08 01:28:42;;;;;;;3.75;2.80;;;11.30;89.00;;;;;;5030577;28;20030;-66
2023/01/08 01:31:12;;;;;;;4.63;3.08;;;11.40;89.00;;;;;;5030025;28;20101;-65
2023/01/08 01:33:38;;;;;;;3.85;2.60;;;11.40;89.00;;;;;;5031712;28;20427;-62
2023/01/08 01:36:04;;;;;;;5.55;3.08;;;11.40;89.10;;;;;;5030433;28;20132;-62
2023/01/08 01:38:30;;;;;;;4.78;3.13;;;11.30;89.10;;;;;;5030925;28;20033;-62
2023/01/08 01:40:55;;;;;;;5.18;2.90;;;11.30;89.10;;;;;;5031692;28;20021;-64
2023/01/08 01:43:42;;;;;;;4.43;3.20;;;11.30;89.10;;;;;;5032662;28;20434;-65
2023/01/08 01:46:32;;;;;;;5.05;3.00;;;11.30;89.10;;;;;;5030351;28;20030;-63
2023/01/08 01:49:01;;;;;;;4.47;3.00;;;11.30;89.10;;;;;;5028342;28;20025;-64
2023/01/08 01:51:32;;;;;;;4.85;2.67;;;11.30;89.10;;;;;;5024222;28;20013;-65
2023/01/08 01:53:59;;;;;;;4.93;3.05;;;11.30;89.10;;;;;;5027440;28;20017;-65
2023/01/08 01:56:27;;;;;;;5.03;2.90;;;11.30;89.00;;;;;;5029557;28;20105;-64
2023/01/08 01:58:52;;;;;;;4.10;2.78;;;11.30;89.00;;;;;;5031741;28;20080;-63
2023/01/08 02:01:18;;;;;;;5.95;3.70;;;11.30;89.00;;;;;;5029716;28;20041;-65
2023/01/08 02:03:44;;;;;;;4.72;3.20;;;11.30;88.90;;;;;;5028211;28;20401;-65
2023/01/08 02:06:12;;;;;;;5.88;3.05;;;11.30;88.80;;;;;;5031961;28;20102;-65
2023/01/08 02:08:44;;;;;;;4.43;3.00;;;11.30;88.80;;;;;;5031910;28;20613;-65
2023/01/08 02:11:11;;;;;;;;;;;11.30;88.90;;;;;;5032327;28;20380;-64
2023/01/08 02:13:49;;;;;;;4.45;2.90;;;11.30;88.70;;;;;;5030600;28;20181;-64
2023/01/08 02:16:42;;;;;;;5.80;3.30;;;11.30;88.80;;;;;;5031049;28;20095;-65
2023/01/08 02:19:20;;;;;;;5.47;3.28;;;11.30;88.80;;;;;;5031974;28;20033;-64
2023/01/08 02:21:58;;;;;;;5.00;2.80;;;11.30;88.60;;;;;;5031944;28;20021;-64
2023/01/08 02:24:42;;;;;;;5.90;3.33;;;11.30;88.60;;;;;;5032127;28;20021;-65
2023/01/08 02:27:08;;;;;;;5.95;3.22;;;11.30;88.60;;;;;;5022250;28;20022;-63
2023/01/08 02:29:34;;;;;;;5.82;3.08;;;11.30;88.60;;;;;;5027999;28;20049;-66
2023/01/08 02:32:00;;;;;;;4.55;2.85;;;11.30;88.70;;;;;;5028095;28;20092;-65
2023/01/08 02:34:27;;;;;;;4.47;3.08;;;11.20;88.60;;;;;;5026655;28;20017;-65
2023/01/08 02:36:54;;;;;;;3.85;2.70;;;11.30;88.70;;;;;;5028500;28;20037;-65
2023/01/08 02:39:36;;;;;;;4.60;3.10;;;11.30;88.80;;;;;;5027806;28;20028;-65
2023/01/08 02:42:17;;;;;;;6.38;3.28;;;11.30;88.80;;;;;;5031331;28;20498;-66
2023/01/08 02:45:07;;;;;;;6.60;3.88;;;11.30;88.80;;;;;;5031637;28;20053;-64
2023/01/08 02:47:43;;;;;;;4.65;2.75;;;11.20;88.80;;;;;;5023956;28;20105;-64
2023/01/08 02:50:30;;;;;;;4.45;2.90;;;11.20;88.90;;;;;;5031367;28;20029;-64
2023/01/08 02:53:03;;;;;;;5.63;3.47;;;11.30;89.00;;;;;;5031394;28;20029;-64
2023/01/08 02:55:30;;;;;;;3.80;2.63;;;11.20;89.10;;;;;;5031645;28;20022;-66
2023/01/08 02:57:56;;;;;;;5.43;3.25;;;11.20;89.10;;;;;;5030521;28;20021;-65
2023/01/08 03:00:23;;;;;;;5.78;3.55;;;11.30;89.30;;;;;;5031367;28;20060;-64
2023/01/08 03:02:50;;;;;;;4.40;2.85;;;11.20;89.40;;;;;;5030604;28;20108;-64
2023/01/08 03:05:22;;;;;;;5.22;2.70;;;11.20;89.60;;;;;;5025137;28;20032;-64
2023/01/08 03:07:48;;;;;;;4.55;2.53;;;11.10;89.80;;;;;;5030392;28;20446;-65
2023/01/08 03:10:14;;;;;;;3.13;2.55;;;11.10;89.90;;;;;;5031297;28;20021;-65
2023/01/08 03:12:49;;;;;;;5.72;2.50;;;11.00;89.90;;;;;;5030482;28;20057;-65
2023/01/08 03:15:23;;;;;;;6.05;2.13;;;11.00;89.90;;;;;;5025629;28;20040;-67
2023/01/08 03:17:52;;;;;;;6.57;2.72;;;10.90;90.00;;;;;;5030747;28;20109;-65
2023/01/08 03:20:22;;;;;;;7.15;2.40;;;10.90;90.00;;;;;;5031077;28;20041;-65
2023/01/08 03:22:51;;;;;;;5.55;2.60;;;10.80;90.00;;;;;;5031534;28;20060;-67
2023/01/08 03:25:20;;;;;;;5.45;2.13;;;10.70;89.90;;;;;;5031476;28;20013;-64
2023/01/08 03:27:50;;;;;;;2.53;1.60;;;10.70;90.00;;;;;;5029930;28;20116;-66
2023/01/08 03:30:18;;;;;;;3.75;1.80;;;10.70;90.10;;;;;;5030077;28;20028;-65
2023/01/08 03:32:46;;;;;;;5.63;2.03;;;10.60;90.10;;;;;;5030579;28;20018;-66
2023/01/08 03:35:16;;;;;;;4.65;1.50;;;10.50;90.00;;;;;;5029350;28;20025;-64
2023/01/08 03:37:45;;;;;;;3.53;1.60;;;10.50;90.00;;;;;;5029493;28;20029;-66
2023/01/08 03:40:19;;;;;;;3.90;1.50;;;10.40;90.00;;;;;;5028912;28;20033;-64
2023/01/08 03:42:45;;;;;;;3.88;1.50;;;10.40;90.00;;;;;;5026785;28;20021;-66
2023/01/08 03:45:10;;;;;;;3.38;1.42;;;10.40;90.00;;;;;;5028571;28;20446;-66
2023/01/08 03:47:38;;;;;;;4.90;1.50;;;10.40;90.00;;;;;;5030807;28;20036;-65
2023/01/08 03:50:09;;;;;;;4.47;1.45;;;10.30;89.90;;;;;;5030667;28;20040;-66
2023/01/08 03:52:35;;;;;;;5.57;1.70;;;10.30;89.90;;;;;;5027460;28;20079;-66
2023/01/08 03:55:01;;;;;;;3.50;1.55;;;10.20;90.00;;;;;;5029999;28;20026;-66
2023/01/08 03:57:26;;;;;;;3.70;1.40;;;10.20;90.10;;;;;;5023080;28;20411;-67
2023/01/08 03:59:52;;;;;;;3.33;1.40;;;10.20;90.20;;;;;;5029205;28;20025;-65
2023/01/08 04:02:18;;;;;;;3.85;1.48;;;10.10;90.20;;;;;;5030205;28;20510;-66
2023/01/08 04:04:43;;;;;;;4.95;1.42;;;10.10;90.30;;;;;;5030521;28;20105;-66
2023/01/08 04:07:10;;;;;;;3.63;1.67;;;10.10;90.40;;;;;;5022577;28;20036;-66
2023/01/08 04:09:35;;;;;;;3.40;1.35;;;10.10;90.40;;;;;;5029164;28;20026;-65
2023/01/08 04:12:01;;;;;;;2.65;1.20;;;10.10;90.40;;;;;;5029346;28;20550;-66
2023/01/08 04:14:27;;;;;;;3.47;1.20;;;10.10;90.50;;;;;;5029279;28;20021;-65
2023/01/08 04:16:52;;;;;;;3.55;1.63;;;10.10;90.50;;;;;;5028549;28;20052;-66
2023/01/08 04:19:18;;;;;;;3.67;1.60;;;10.10;90.60;;;;;;5030130;28;20128;-65
2023/01/08 04:21:43;;;;;;;2.58;1.30;;;10.10;90.60;;;;;;5029668;28;20028;-65
2023/01/08 04:24:11;;;;;;;5.00;1.55;;;10.10;90.70;;;;;;5030358;28;20025;-66
2023/01/08 04:26:37;;;;;;;3.17;1.20;;;10.10;90.70;;;;;;5045520;28;20029;-66
2023/01/08 04:29:03;;;;;;;3.55;1.30;;;10.10;90.70;;;;;;5026193;28;20025;-66
2023/01/08 04:31:30;;;;;;;3.22;1.50;;;10.10;90.70;;;;;;5023615;28;20044;-65
2023/01/08 04:33:55;;;;;;;5.85;1.48;;;10.10;90.70;;;;;;5028247;28;20041;-66
2023/01/08 04:36:21;;;;;;;4.32;1.38;;;10.10;90.60;;;;;;5024596;28;20067;-66
2023/01/08 04:38:47;;;;;;;7.43;1.50;;;10.00;90.60;;;;;;5024265;28;20396;-64
2023/01/08 04:41:12;;;;;;;2.85;1.40;;;10.00;90.70;;;;;;5024144;28;20033;-64
2023/01/08 04:43:38;;;;;;;3.58;1.35;;;10.00;90.70;;;;;;5026765;28;20387;-67
2023/01/08 04:46:07;;;;;;;3.58;1.30;;;10.00;90.70;;;;;;5025674;28;20510;-65
2023/01/08 04:48:33;;;;;;;3.05;1.15;;;10.00;90.80;;;;;;5026362;28;20101;-65
2023/01/08 04:51:00;;;;;;;2.25;1.20;;;10.00;90.80;;;;;;5025239;28;20443;-66
2023/01/08 04:53:26;;;;;;;4.82;1.60;;;10.00;90.90;;;;;;5025897;28;20014;-67
2023/01/08 04:55:53;;;;;;;5.95;1.42;;;10.00;90.80;;;;;;5028337;28;20701;-69
2023/01/08 04:58:18;;;;;;;5.20;1.70;;;10.00;90.80;;;;;;5024471;28;20029;-66
2023/01/08 05:00:44;;;;;;;5.60;1.63;;;10.00;90.80;;;;;;5028319;28;20117;-65
2023/01/08 05:03:09;;;;;;;5.15;1.40;;;10.10;90.80;;;;;;5028445;28;20037;-65
2023/01/08 05:05:35;;;;;;;4.05;1.40;;;10.10;90.80;;;;;;5025863;28;20025;-65
2023/01/08 05:08:01;;;;;;;6.35;1.35;;;10.10;90.80;;;;;;5028482;28;20029;-64
2023/01/08 05:10:26;;;;;;;5.25;1.45;;;10.10;90.80;;;;;;5028582;28;20111;-66
2023/01/08 05:12:56;;;;;;;3.75;1.23;;;10.00;90.80;;;;;;5025529;28;20084;-65
2023/01/08 05:15:21;;;;;;;5.20;1.60;;;10.00;90.80;;;;;;5027169;28;20040;-65
2023/01/08 05:17:47;;;;;;;4.80;1.45;;;10.00;90.90;;;;;;5024512;28;20033;-65
2023/01/08 05:20:12;;;;;;;4.38;1.50;;;10.00;90.90;;;;;;5028370;28;20040;-66
2023/01/08 05:22:38;;;;;;;3.97;1.30;;;10.00;90.90;;;;;;5029373;28;20028;-65
2023/01/08 05:25:04;;;;;;;4.40;1.75;;;10.00;90.90;;;;;;5029275;28;20482;-64
2023/01/08 05:27:29;;;;;;;5.90;1.88;;;10.00;90.90;;;;;;5029750;28;20108;-65
2023/01/08 05:29:55;;;;;;;4.57;1.35;;;10.00;90.90;;;;;;5028479;28;20102;-66
2023/01/08 05:32:20;;;;;;;6.25;1.63;;;10.00;90.90;;;;;;5026820;28;20030;-65
2023/01/08 05:34:46;;;;;;;5.38;1.67;;;10.00;90.80;;;;;;5029031;28;20021;-65
2023/01/08 05:37:12;;;;;;;4.78;1.55;;;10.00;90.90;;;;;;5028874;28;20037;-66
2023/01/08 05:39:37;;;;;;;4.95;1.33;;;10.00;90.80;;;;;;5029096;28;20014;-65
2023/01/08 05:42:04;;;;;;;6.03;2.00;;;10.00;90.80;;;;;;5023212;28;20538;-65
2023/01/08 05:44:29;;;;;;;4.45;1.65;;;10.00;90.80;;;;;;5028212;28;20034;-65
2023/01/08 05:46:56;;;;;;;2.63;1.50;;;10.00;90.90;;;;;;5028109;28;20506;-65
2023/01/08 05:49:22;;;;;;;4.85;1.63;;;10.00;90.80;;;;;;5027896;28;20385;-66
2023/01/08 05:51:48;;;;;;;3.92;1.70;;;10.00;90.80;;;;;;5028516;28;20025;-66
2023/01/08 05:54:14;;;;;;;3.60;1.40;;;10.00;90.80;;;;;;5029078;28;20075;-65
2023/01/08 05:56:42;;;;;;;3.22;1.67;;;10.00;90.90;;;;;;5028385;28;20434;-65
2023/01/08 05:59:10;;;;;;;3.88;1.60;;;10.00;90.90;;;;;;5027303;28;20452;-66
2023/01/08 06:01:35;;;;;;;3.15;1.70;;;9.90;90.90;;;;;;5021612;28;20499;-64
2023/01/08 06:04:01;;;;;;;5.30;2.08;;;10.00;90.90;;;;;;5029452;28;20037;-64
2023/01/08 06:06:26;;;;;;;2.47;1.60;;;10.00;90.80;;;;;;5030312;28;20028;-66
2023/01/08 06:08:52;;;;;;;2.55;1.33;;;9.90;90.80;;;;;;5032654;28;20492;-65
2023/01/08 06:11:17;;;;;;;4.45;1.75;;;10.00;90.80;;;;;;5031108;28;20718;-63
2023/01/08 06:13:43;;;;;;;3.75;1.42;;;10.00;90.70;;;;;;5033080;28;20550;-65
2023/01/08 06:16:09;;;;;;;3.42;1.73;;;10.00;90.70;;;;;;5029527;28;20112;-66
2023/01/08 06:18:35;;;;;;;3.47;1.60;;;10.00;90.60;;;;;;5023655;28;20029;-65
2023/01/08 06:21:02;;;;;;;3.78;1.70;;;10.00;90.60;;;;;;5030046;28;20029;-65
2023/01/08 06:23:28;;;;;;;3.90;1.70;;;10.00;90.60;;;;;;5031741;28;20554;-64
2023/01/08 06:25:55;;;;;;;2.65;1.40;;;10.00;90.50;;;;;;5031589;28;20029;-67
2023/01/08 06:28:21;;;;;;;3.75;1.60;;;10.00;90.50;;;;;;5026690;28;20025;-65
2023/01/08 06:30:47;;;;;;;4.90;1.90;;;10.00;90.40;;;;;;5027434;28;20072;-66
2023/01/08 06:33:12;;;;;;;3.83;1.60;;;10.00;90.40;;;;;;5032162;28;20503;-65
2023/01/08 06:35:38;;;;;;;3.28;1.60;;;9.90;90.30;;;;;;5023613;28;20068;-66
2023/01/08 06:38:04;;;;;;;3.20;1.40;;;9.90;90.20;;;;;;5027998;28;20104;-66
2023/01/08 06:40:29;;;;;;;2.92;1.40;;;9.90;90.20;;;;;;5030398;28;20034;-66
2023/01/08 06:42:55;;;;;;;3.40;1.20;;;9.90;90.20;;;;;;5028976;28;20026;-65
2023/01/08 06:45:20;;;;;;;3.13;1.40;;;9.80;90.10;;;;;;5030810;28;20095;-65
2023/01/08 06:47:46;;;;;;;4.63;1.83;;;9.80;90.30;;;;;;5025198;28;20060;-65
2023/01/08 06:50:11;;;;;;;2.15;1.38;;;9.70;89.80;;;;;;5029271;28;20431;-65
2023/01/08 06:52:37;;;;;;;4.28;1.83;;;9.70;89.70;;;;;;5031141;28;20112;-66
2023/01/08 06:55:04;;;;;;;2.72;1.50;;;9.60;89.60;;;;;;5031571;28;20029;-65
2023/01/08 06:57:30;;;;;;;3.00;1.35;;;9.60;89.50;;;;;;5029682;28;20107;-66
2023/01/08 06:59:56;;;;;;;4.25;1.30;;;9.60;89.60;;;;;;5026956;28;20034;-64
2023/01/08 07:02:21;;;;;;;3.80;1.40;;;9.60;89.60;;;;;;5030238;28;20135;-65
2023/01/08 07:04:47;;;;;;;4.07;1.35;;;9.60;89.40;;;;;;5027633;28;20487;-64
2023/01/08 07:07:13;;;;;;;2.92;1.50;;;9.50;89.30;;;;;;5029429;28;20369;-63
2023/01/08 07:09:40;;;;;;;2.25;1.30;;;9.50;89.30;;;;;;5028579;28;20017;-66
2023/01/08 07:12:08;;;;;;;2.22;1.33;;;9.40;89.40;;;;;;5026115;28;20027;-64
2023/01/08 07:14:34;;;;;;;5.00;1.80;;;9.40;89.50;;;;;;5029957;28;20114;-65
2023/01/08 07:16:59;;;;;;;5.15;1.45;;;9.40;89.50;;;;;;5029110;28;20464;-63
2023/01/08 07:19:25;;;;;;;4.07;1.70;;;9.30;89.40;;;;;;5029704;28;20464;-64
2023/01/08 07:21:50;;;;;;;5.13;1.63;;;9.30;90.00;;;;;;5022455;28;20391;-64
2023/01/08 07:24:16;;;;;;;4.88;1.50;;;9.30;89.20;;;;;;5028090;28;20026;-64
2023/01/08 07:26:41;;;;;;;3.92;1.38;;;9.30;89.10;;;;;;5029014;28;20025;-63
2023/01/08 07:29:07;;;;;;;5.60;1.60;;;9.20;88.90;;;;;;5019929;28;20021;-64
2023/01/08 07:31:33;;;;;;;4.90;1.55;;;9.20;88.80;;;;;;5031294;28;20025;-64
2023/01/08 07:33:58;;;;;;;3.63;1.25;;;9.20;88.80;;;;;;5030124;28;20026;-63
2023/01/08 07:36:24;;;;;;;4.30;1.60;;;9.20;88.70;;;;;;5022278;28;20025;-66
2023/01/08 07:38:49;;;;;;;3.83;1.50;;;9.20;88.60;;;;;;5027607;28;20036;-65
2023/01/08 07:41:16;;;;;;;4.50;1.42;;;9.20;88.50;;;;;;5027529;28;20111;-67
2023/01/08 07:43:41;;;;;;;3.72;1.38;;;9.20;88.30;;;;;;5028158;28;20021;-66
2023/01/08 07:46:07;;;;;;;4.85;1.73;;;9.20;88.30;;;;;;5036318;28;20044;-63
2023/01/08 07:48:33;;;;;;;6.47;1.52;;;9.20;88.00;;;;;;5022220;28;20482;-63
2023/01/08 07:51:06;;;;;;;4.13;1.52;;;9.20;88.00;;;;;;5028769;28;20025;-64
2023/01/08 07:53:32;;;;;;;4.95;1.95;;;9.20;87.70;;;;;;5019737;28;20022;-65
2023/01/08 07:56:02;;;;;;;3.97;1.50;;;9.20;87.40;;;;;;5023351;28;20121;-65
2023/01/08 07:58:28;;;;;;;3.35;1.48;;;9.20;87.40;;;;;;5026674;28;20104;-67
2023/01/08 08:00:55;;;;;;;6.00;1.67;;;9.20;87.40;;;;;;5026348;28;20120;-65
2023/01/08 08:03:21;;;;;;;4.95;1.60;;;9.20;87.30;;;;;;5018299;28;20034;-67
2023/01/08 08:05:46;;;;;;;2.40;1.33;;;9.20;87.20;;;;;;5024001;28;20045;-67
2023/01/08 08:08:12;;;;;;;5.55;1.90;;;9.20;87.10;;;;;;5024049;28;20075;-62
2023/01/08 08:10:39;;;;;;;5.70;1.80;;;9.10;86.70;;;;;;5028340;28;20030;-63
2023/01/08 08:13:05;;;;;;;8.48;1.88;;;9.10;86.60;;;;;;5029937;28;20025;-66
2023/01/08 08:15:32;;;;;;;5.32;1.65;;;9.10;86.60;;;;;;5023367;28;20025;-67
2023/01/08 08:17:58;;;;;;;7.82;1.75;;;9.10;86.40;;;;;;5026343;28;20033;-64
2023/01/08 08:20:24;;;;;;;6.43;2.08;;;9.10;86.30;;;;;;5027232;28;20037;-65
2023/01/08 08:22:50;;;;;;;3.97;1.83;;;9.00;85.70;;;;;;5029565;28;20025;-65
2023/01/08 08:25:15;;;;;;;9.05;2.17;;;9.00;85.80;;;;;;5027984;28;20096;-66
2023/01/08 08:27:42;;;;;;;5.82;2.00;;;9.10;85.50;;;;;;5023178;28;20025;-66
2023/01/08 08:30:09;;;;;;;8.30;2.00;;;9.00;85.30;;;;;;5024584;28;20021;-66
2023/01/08 08:32:35;;;;;;;9.40;2.53;;;9.10;85.30;;;;;;5029389;28;20164;-65
2023/01/08 08:35:01;;;;;;;8.50;2.17;;;9.10;85.10;;;;;;5021011;28;21842;-67
2023/01/08 08:37:26;;;;;;;8.27;2.00;;;9.00;84.80;;;;;;5025899;28;20112;-66
2023/01/08 08:39:52;;;;;;;7.07;1.90;;;9.00;84.60;;;;;;5029973;28;20033;-67
2023/01/08 08:42:18;;;;;;;8.23;1.98;;;9.00;84.60;;;;;;5031704;28;20024;-66
2023/01/08 08:44:43;;;;;;;5.55;1.90;;;9.00;84.60;;;;;;5025542;28;20104;-66
2023/01/08 08:47:09;;;;;;;6.70;1.98;;;9.00;84.40;;;;;;5021186;28;20037;-66
2023/01/08 08:49:35;;;;;;;8.00;1.90;;;9.00;84.40;;;;;;5027154;28;20032;-67
2023/01/08 08:52:01;;;;;;;7.50;2.35;;;9.00;84.40;;;;;;5029811;28;20021;-67
2023/01/08 08:54:27;;;;;;;5.57;1.73;;;9.00;84.30;;;;;;5026817;28;20028;-66
2023/01/08 08:56:52;;;;;;;7.25;1.90;;;9.00;84.30;;;;;;5025450;28;20441;-66
2023/01/08 08:59:18;;;;;;;9.13;2.08;;;9.00;84.30;;;;;;5028150;28;20488;-66
2023/01/08 09:01:43;;;;;;;6.05;1.80;;;9.00;84.30;;;;;;5026596;28;20060;-66
2023/01/08 09:04:09;;;;;;;6.15;2.00;;;9.00;84.40;;;;;;5029655;28;20025;-67
2023/01/08 09:06:34;;;;;;;6.38;1.92;;;9.00;84.40;;;;;;5023439;28;20030;-66
2023/01/08 09:09:00;;;;;;;5.68;1.40;;;9.00;84.40;;;;;;5027343;28;20029;-66
2023/01/08 09:11:26;;;;;;;7.40;2.03;;;9.10;84.60;;;;;;5024364;28;20026;-66
2023/01/08 09:13:51;;;;;;;6.78;1.95;;;9.10;84.50;;;;;;5026572;28;20030;-65
2023/01/08 09:16:17;;;;;;;7.03;1.70;;;9.10;84.50;;;;;;5026190;28;20056;-66
2023/01/08 09:18:43;;;;;;;6.40;1.58;;;9.10;84.50;;;;;;5025892;28;20098;-68
2023/01/08 09:21:09;;;;;;;6.40;2.05;;;9.20;84.50;;;;;;5027708;28;20495;-65
2023/01/08 09:23:35;;;;;;;7.80;1.92;;;9.20;84.50;;;;;;5028899;28;20075;-65
2023/01/08 09:26:02;;;;;;;8.75;1.80;;;9.30;84.60;;;;;;5029523;28;20107;-66
2023/01/08 09:28:28;;;;;;;8.48;2.05;;;9.30;84.40;;;;;;5025931;28;20094;-66
2023/01/08 09:30:53;;;;;;;5.38;1.70;;;9.30;84.40;;;;;;5021021;28;20531;-66
2023/01/08 09:33:19;;;;;;;5.80;1.80;;;9.30;84.60;;;;;;5025187;28;20113;-66
2023/01/08 09:35:45;;;;;;;5.07;1.65;;;9.30;84.70;;;;;;5030094;28;20041;-67
2023/01/08 09:38:10;;;;;;;6.75;1.80;;;9.30;84.90;;;;;;5028093;28;20048;-65
2023/01/08 09:40:57;;;;;;;6.90;1.90;;;9.30;84.90;;;;;;5030317;28;20033;-66
2023/01/08 09:43:25;;;;;;;6.47;1.80;;;9.40;84.90;;;;;;5032064;28;20028;-67
2023/01/08 09:45:54;;;;;;;5.65;1.77;;;9.40;85.00;;;;;;5032588;28;20080;-67
2023/01/08 09:48:26;;;;;;;9.25;2.15;;;9.40;84.90;;;;;;5032890;28;20030;-67
2023/01/08 09:50:52;;;;;;;;;;;9.40;84.80;;;;;;5032794;28;20028;-67
2023/01/08 09:53:17;;;;;;;6.72;1.90;;;9.40;84.90;;;;;;5033559;28;20279;-67
2023/01/08 09:55:45;;;;;;;5.63;1.52;;;9.40;85.20;;;;;;5033041;28;20053;-66
2023/01/08 09:58:31;;;;;;;6.45;1.80;;;9.50;85.40;;;;;;5029890;28;20565;-66
2023/01/08 10:00:59;;;;;;;7.97;2.10;;;9.40;85.40;;;;;;5030045;28;20029;-65
2023/01/08 10:03:30;;;;;;;6.55;2.08;;;9.40;85.50;;;;;;5031701;28;20024;-65
2023/01/08 10:05:56;;;;;;;8.10;2.08;;;9.40;85.80;;;;;;5031289;28;20032;-66
2023/01/08 10:08:22;;;;;;;6.40;1.77;;;9.50;85.80;;;;;;5029154;28;20488;-65
2023/01/08 10:10:47;;;;;;;6.38;2.15;;;9.40;85.80;;;;;;5030670;28;20048;-66
2023/01/08 10:13:14;;;;;;;7.70;2.05;;;9.40;85.80;;;;;;5031861;28;20087;-65
2023/01/08 10:15:40;;;;;;;7.10;1.80;;;9.40;86.00;;;;;;5026103;28;20026;-65
2023/01/08 10:18:11;;;;;;;6.50;2.53;;;9.40;86.10;;;;;;5028854;28;20045;-65
2023/01/08 10:20:38;;;;;;;8.05;1.92;;;9.40;86.30;;;;;;5028966;28;20029;-67
2023/01/08 10:23:14;;;;;;;4.95;1.70;;;9.40;86.40;;;;;;5029809;28;20112;-66
2023/01/08 10:25:51;;;;;;;6.03;1.92;;;9.50;86.50;;;;;;5029423;28;20036;-65
2023/01/08 10:28:37;;;;;;;8.18;1.95;;;9.60;86.60;;;;;;5027579;28;20032;-68
2023/01/08 10:31:10;;;;;;;6.95;2.13;;;9.60;86.40;;;;;;5023804;28;20039;-67
2023/01/08 10:33:37;;;;;;;7.32;2.15;;;9.70;86.30;;;;;;5028154;28;20029;-64
2023/01/08 10:36:07;;;;;;;6.72;2.13;;;9.60;86.10;;;;;;5029071;28;20032;-67
2023/01/08 10:38:47;;;;;;;6.72;2.20;;;9.60;86.20;;;;;;5028276;28;20068;-65
2023/01/08 10:41:13;;;;;;;6.03;2.00;;;9.70;86.30;;;;;;5028752;28;20064;-65
2023/01/08 10:43:58;;;;;;;4.70;1.80;;;9.70;86.20;;;;;;5029311;28;20029;-65
2023/01/08 10:46:29;;;;;;;5.05;1.88;;;9.70;86.30;;;;;;5028798;28;20026;-65
2023/01/08 10:48:57;;;;;;;7.03;2.10;;;9.80;86.90;;;;;;5029890;28;20051;-65
2023/01/08 10:51:25;;;;;;;5.57;1.77;;;9.80;86.10;;;;;;5027522;28;20052;-65
2023/01/08 10:53:52;;;;;;;4.78;1.98;;;9.90;86.20;;;;;;5029080;28;20403;-65
2023/01/08 10:56:22;;;;;;;7.00;2.15;;;9.90;86.20;;;;;;5028330;28;20033;-66
2023/01/08 10:58:49;;;;;;;6.63;2.22;;;9.90;86.00;;;;;;5030092;28;20091;-65
2023/01/08 11:01:23;;;;;;;6.22;2.42;;;9.90;86.00;;;;;;5031037;28;20117;-66
2023/01/08 11:03:55;;;;;;;6.82;2.25;;;9.90;86.00;;;;;;5022585;28;20033;-66
2023/01/08 11:06:29;;;;;;;;;;;9.90;85.90;;;;;;5029031;28;20076;-66
2023/01/08 11:08:58;;;;;;;5.50;2.03;;;9.90;85.80;;;;;;5024348;28;19909;-66
2023/01/08 11:11:30;;;;;;;6.95;2.20;;;10.00;86.00;;;;;;5029316;28;20017;-65
2023/01/08 11:13:58;;;;;;;6.43;2.22;;;10.10;86.00;;;;;;5029027;28;20025;-65
2023/01/08 11:16:34;;;;;;;9.27;2.28;;;10.00;85.80;;;;;;5025144;28;20029;-66
2023/01/08 11:19:00;;;;;;;7.00;2.10;;;10.10;85.80;;;;;;5028306;28;20026;-65
2023/01/08 11:21:31;;;;;;;6.97;2.25;;;10.10;85.60;;;;;;5029914;28;20052;-65
2023/01/08 11:24:20;;;;;;;4.72;2.20;;;10.10;85.50;;;;;;5028678;28;20040;-65
2023/01/08 11:26:57;;;;;;;8.30;2.25;;;10.10;85.40;;;;;;5027450;28;20582;-65
2023/01/08 11:29:40;;;;;;;6.22;2.72;;;10.20;85.40;;;;;;5027623;28;20061;-65
2023/01/08 11:32:35;;;;;;;9.65;2.33;;;10.30;85.30;;;;;;5024287;28;20076;-65
2023/01/08 11:35:11;;;;;;;6.38;1.98;;;10.30;85.10;;;;;;5027744;28;20396;-66
2023/01/08 11:37:42;;;;;;;4.57;1.88;;;10.30;84.80;;;;;;5026833;28;20026;-66
2023/01/08 11:40:14;;;;;;;7.47;2.40;;;10.40;84.80;;;;;;5027290;28;20022;-66
2023/01/08 11:43:00;;;;;;;5.72;2.35;;;10.40;84.60;;;;;;5027965;28;20105;-66
2023/01/08 11:45:50;;;;;;;5.93;2.00;;;10.40;84.80;;;;;;5043110;28;20044;-65
2023/01/08 11:48:31;;;;;;;5.40;2.00;;;10.40;84.30;;;;;;5025149;28;20072;-65
2023/01/08 11:51:13;;;;;;;6.65;2.42;;;10.50;84.40;;;;;;5028237;28;20022;-66
2023/01/08 11:53:58;;;;;;;;;;;10.60;84.00;;;;;;5024376;28;20029;-66
2023/01/08 11:56:45;;;;;;;5.03;1.70;;;10.60;83.70;;;;;;5029336;28;19917;-66
2023/01/08 11:59:27;;;;;;;4.53;1.70;;;10.60;83.90;;;;;;5026350;28;20030;-66
2023/01/08 12:02:20;;;;;;;5.88;1.60;;;10.60;83.90;;;;;;5028432;28;20038;-66
2023/01/08 12:05:01;;;;;;;5.10;1.80;;;10.70;83.80;;;;;;5027176;28;20049;-65
2023/01/08 12:07:48;;;;;;;3.40;1.60;;;10.80;83.50;;;;;;5028048;28;20021;-66
2023/01/08 12:10:26;;;;;;;3.33;1.45;;;10.80;82.70;;;;;;5028187;28;20028;-66
2023/01/08 12:13:22;;;;;;;3.92;1.52;;;10.90;82.70;;;;;;5022197;28;20036;-66
2023/01/08 12:16:08;;;;;;;2.47;1.40;;;11.00;82.40;;;;;;5026505;28;20507;-66
2023/01/08 12:18:45;;;;;;;2.40;1.35;;;11.00;81.90;;;;;;5027220;28;20120;-66
2023/01/08 12:21:14;;;;;;;1.80;1.13;;;11.00;81.40;;;;;;5027311;28;20471;-66
2023/01/08 12:23:48;;;;;;;2.80;1.40;;;11.10;80.90;;;;;;5024669;28;20021;-66
2023/01/08 12:26:14;;;;;;;4.00;1.40;;;11.20;80.70;;;;;;5026283;28;20159;-66
2023/01/08 12:29:03;;;;;;;2.33;1.23;;;11.30;80.60;;;;;;5027024;28;20096;-66
2023/01/08 12:31:50;;;;;;;1.92;1.10;;;11.30;80.70;;;;;;5024882;28;21338;-66
2023/01/08 12:34:34;;;;;;;2.47;1.35;;;11.50;81.40;;;;;;5021981;28;20092;-67
2023/01/08 12:37:15;;;;;;;1.45;1.10;;;12.00;81.10;;;;;;5022210;28;20037;-65
2023/01/08 12:40:09;;;;;;;2.58;1.20;;;12.70;79.30;;;;;;5025883;28;20022;-65
2023/01/08 12:42:43;;;;;;;2.67;1.20;;;13.30;77.00;;;;;;5028054;28;20033;-65
2023/01/08 12:45:28;;;;;;;1.90;1.10;;;13.90;72.10;;;;;;5020246;28;20029;-65
2023/01/08 12:48:02;;;;;;;2.45;1.30;;;14.70;70.00;;;;;;5027660;28;20060;-65
2023/01/08 12:51:03;;;;;;;1.90;0.98;;;14.30;69.30;;;;;;5027942;28;20028;-65
2023/01/08 12:53:47;;;;;;;2.05;1.17;;;13.50;69.60;;;;;;5024380;28;20091;-65
2023/01/08 12:56:16;;;;;;;2.38;1.08;;;13.00;71.20;;;;;;5026949;28;20033;-65
2023/01/08 12:59:20;;;;;;;1.48;0.93;;;12.50;71.90;;;;;;5024873;28;20033;-65
2023/01/08 13:02:20;;;;;;;1.77;1.00;;;12.30;73.00;;;;;;5018761;28;20045;-65